Time;durP1;ratioP1;P1;durP2;ratioP2;P2;SDS_P1;SDS_P2;PMS_P1;PMS_P2;Temp;Humidity;BMP_temperature;BMP_pressure;BME280_temperature;BME280_humidity;BME280_pressure;Samples;Min_cycle;Max_cycle;Signal;HPM_P1;HPM_P2
2024/01/12 00:00:46;;;;;;;7.07;3.80;;;-2.70;99.90;;;;;;4897181;29;20035;-66
2024/01/12 00:03:15;;;;;;;11.23;4.93;;;-2.70;99.90;;;;;;4898949;29;20041;-67
2024/01/12 00:05:41;;;;;;;14.23;5.40;;;-2.70;99.90;;;;;;4898756;29;20047;-67
2024/01/12 00:08:06;;;;;;;5.22;3.13;;;-2.60;99.90;;;;;;4883885;29;20032;-67
2024/01/12 00:10:32;;;;;;;9.70;6.18;;;-2.60;99.90;;;;;;4898856;29;20028;-66
2024/01/12 00:12:58;;;;;;;14.80;4.50;;;-2.70;99.90;;;;;;4877966;29;20024;-66
2024/01/12 00:15:24;;;;;;;9.10;5.35;;;-2.60;99.90;;;;;;4899362;29;20100;-67
2024/01/12 00:17:49;;;;;;;10.13;5.53;;;-2.70;99.90;;;;;;4874954;29;20037;-67
2024/01/12 00:20:15;;;;;;;7.75;5.05;;;-2.70;99.90;;;;;;4898825;29;20041;-66
2024/01/12 00:22:41;;;;;;;5.47;3.72;;;-2.70;99.90;;;;;;4899329;29;20032;-66
2024/01/12 00:25:07;;;;;;;9.45;5.57;;;-2.80;99.90;;;;;;4899892;29;20043;-67
2024/01/12 00:27:33;;;;;;;8.98;4.57;;;-2.80;99.90;;;;;;4898013;29;20029;-66
2024/01/12 00:29:59;;;;;;;13.48;6.05;;;-2.80;99.90;;;;;;4899922;29;20101;-67
2024/01/12 00:32:25;;;;;;;7.03;4.72;;;-2.80;99.90;;;;;;4893465;29;20033;-67
2024/01/12 00:34:50;;;;;;;11.05;4.75;;;-2.80;99.90;;;;;;4899565;29;20036;-67
2024/01/12 00:37:16;;;;;;;14.13;4.57;;;-2.80;99.90;;;;;;4899332;29;20032;-67
2024/01/12 00:39:44;;;;;;;7.28;3.38;;;-2.70;99.90;;;;;;4898196;29;20087;-66
2024/01/12 00:42:10;;;;;;;4.53;3.15;;;-2.70;99.90;;;;;;4879446;29;20044;-66
2024/01/12 00:44:35;;;;;;;9.32;4.80;;;-2.70;99.90;;;;;;4898881;29;20036;-67
2024/01/12 00:47:01;;;;;;;7.43;4.63;;;-2.80;99.90;;;;;;4899054;29;20069;-67
2024/01/12 00:49:27;;;;;;;13.70;3.40;;;-2.80;99.90;;;;;;4898135;29;20091;-67
2024/01/12 00:51:53;;;;;;;7.82;5.32;;;-2.80;99.90;;;;;;4898642;29;20111;-66
2024/01/12 00:54:22;;;;;;;8.55;4.18;;;-2.80;99.90;;;;;;4899723;29;20039;-66
2024/01/12 00:56:48;;;;;;;14.65;5.95;;;-2.80;99.90;;;;;;4899130;29;20033;-67
2024/01/12 00:59:14;;;;;;;7.85;4.65;;;-2.80;99.90;;;;;;4898178;29;20149;-67
2024/01/12 01:01:40;;;;;;;12.23;5.13;;;-2.90;99.90;;;;;;4897501;29;20044;-67
2024/01/12 01:04:05;;;;;;;7.35;4.93;;;-2.90;99.90;;;;;;4898188;29;20520;-67
2024/01/12 01:06:31;;;;;;;12.00;4.13;;;-2.90;99.90;;;;;;4898817;29;20084;-67
2024/01/12 01:08:57;;;;;;;11.32;4.40;;;-3.00;99.90;;;;;;4897829;29;20550;-67
2024/01/12 01:11:22;;;;;;;12.73;5.00;;;-3.00;99.90;;;;;;4898240;29;20047;-67
2024/01/12 01:13:49;;;;;;;10.68;6.32;;;-3.10;99.90;;;;;;4897539;29;20028;-67
2024/01/12 01:16:15;;;;;;;6.05;3.90;;;-3.10;99.90;;;;;;4876577;29;20136;-67
2024/01/12 01:18:40;;;;;;;8.95;6.30;;;-3.10;99.90;;;;;;4897483;29;20737;-65
2024/01/12 01:21:06;;;;;;;6.13;4.10;;;-3.10;99.90;;;;;;4898656;29;20040;-65
2024/01/12 01:23:32;;;;;;;10.32;4.65;;;-3.10;99.90;;;;;;4898756;29;20032;-65
2024/01/12 01:25:59;;;;;;;15.82;4.75;;;-3.10;99.90;;;;;;4897123;29;20039;-65
2024/01/12 01:28:24;;;;;;;10.43;4.95;;;-3.10;99.90;;;;;;4897412;29;20024;-66
2024/01/12 01:30:50;;;;;;;11.88;6.75;;;-3.00;99.90;;;;;;4896941;29;20028;-65
2024/01/12 01:33:16;;;;;;;5.75;4.32;;;-3.00;99.90;;;;;;4898784;29;20075;-66
2024/01/12 01:35:42;;;;;;;9.18;5.13;;;-3.10;99.90;;;;;;4897265;29;20058;-65
2024/01/12 01:38:08;;;;;;;13.27;5.75;;;-3.10;99.90;;;;;;4898891;29;20478;-66
2024/01/12 01:40:33;;;;;;;7.65;5.70;;;-3.10;99.90;;;;;;4898053;29;20044;-65
2024/01/12 01:43:09;;;;;;;6.80;3.58;;;-3.00;99.90;;;;;;4909208;29;20033;-65
2024/01/12 01:45:36;;;;;;;7.45;3.88;;;-3.10;99.90;;;;;;4880707;29;20399;-65
2024/01/12 01:48:07;;;;;;;7.05;3.90;;;-3.10;99.90;;;;;;4913174;29;20020;-66
2024/01/12 01:50:34;;;;;;;10.77;5.18;;;-3.10;99.90;;;;;;4896965;29;20037;-66
2024/01/12 01:53:01;;;;;;;6.80;4.03;;;-3.10;99.90;;;;;;4908882;29;20025;-65
2024/01/12 01:55:29;;;;;;;4.57;2.95;;;-3.20;99.90;;;;;;4879820;29;20033;-65
2024/01/12 01:57:57;;;;;;;5.68;3.85;;;-3.20;99.90;;;;;;4877706;29;20054;-66
2024/01/12 02:00:23;;;;;;;15.23;4.53;;;-3.20;99.90;;;;;;4897457;29;20037;-66
2024/01/12 02:02:49;;;;;;;5.85;3.95;;;-3.20;99.90;;;;;;4872367;29;20064;-66
2024/01/12 02:05:15;;;;;;;9.95;5.35;;;-3.20;99.90;;;;;;4894115;29;20073;-66
2024/01/12 02:07:42;;;;;;;8.13;4.90;;;-3.20;99.90;;;;;;4887869;29;20040;-66
2024/01/12 02:10:09;;;;;;;7.13;4.28;;;-3.20;99.90;;;;;;4896890;29;20338;-66
2024/01/12 02:12:37;;;;;;;15.23;5.63;;;-3.20;99.90;;;;;;4874634;29;20176;-66
2024/01/12 02:15:12;;;;;;;8.88;4.15;;;-3.20;99.90;;;;;;4896982;29;20025;-66
2024/01/12 02:17:38;;;;;;;8.88;3.67;;;-3.20;99.90;;;;;;4902820;29;20068;-66
2024/01/12 02:20:05;;;;;;;11.57;4.70;;;-3.30;99.90;;;;;;4896247;29;20036;-66
2024/01/12 02:22:31;;;;;;;6.25;3.42;;;-3.30;99.90;;;;;;4895553;29;20478;-66
2024/01/12 02:25:01;;;;;;;9.63;5.43;;;-3.30;99.90;;;;;;4894100;29;20032;-66
2024/01/12 02:27:30;;;;;;;10.03;3.97;;;-3.30;99.90;;;;;;4895924;29;20519;-66
2024/01/12 02:29:57;;;;;;;9.77;3.65;;;-3.30;99.90;;;;;;4878044;29;20049;-66
2024/01/12 02:32:23;;;;;;;11.18;5.75;;;-3.40;99.90;;;;;;4895106;29;20703;-66
2024/01/12 02:34:51;;;;;;;16.92;4.10;;;-3.40;99.90;;;;;;4896153;29;20035;-66
2024/01/12 02:37:16;;;;;;;7.63;3.35;;;-3.40;99.90;;;;;;4896649;29;20036;-66
2024/01/12 02:39:46;;;;;;;8.70;4.60;;;-3.40;99.90;;;;;;4897227;29;20043;-66
2024/01/12 02:42:12;;;;;;;6.85;4.47;;;-3.50;99.90;;;;;;4894969;29;20036;-66
2024/01/12 02:44:37;;;;;;;11.52;3.95;;;-3.60;99.90;;;;;;4895603;29;20374;-66
2024/01/12 02:47:04;;;;;;;12.43;6.07;;;-3.60;99.90;;;;;;4896691;29;20112;-66
2024/01/12 02:49:30;;;;;;;12.32;3.58;;;-3.60;99.90;;;;;;4895933;29;20071;-66
2024/01/12 02:51:59;;;;;;;5.43;3.90;;;-3.70;99.90;;;;;;4910998;29;20028;-66
2024/01/12 02:54:25;;;;;;;11.68;4.32;;;-3.60;99.90;;;;;;4911588;29;20108;-66
2024/01/12 02:56:50;;;;;;;8.93;4.70;;;-3.70;99.90;;;;;;4896618;29;20115;-66
2024/01/12 02:59:16;;;;;;;10.43;3.25;;;-3.70;99.90;;;;;;4897029;29;20473;-66
2024/01/12 03:01:42;;;;;;;5.13;3.10;;;-3.70;99.90;;;;;;4895898;29;20029;-66
2024/01/12 03:04:07;;;;;;;5.35;2.88;;;-3.70;99.90;;;;;;4911095;29;20092;-66
2024/01/12 03:06:33;;;;;;;7.40;4.38;;;-3.60;99.90;;;;;;4896675;29;20045;-66
2024/01/12 03:08:59;;;;;;;14.52;4.22;;;-3.60;99.90;;;;;;4897100;29;20381;-66
2024/01/12 03:11:25;;;;;;;7.88;4.30;;;-3.60;99.90;;;;;;4895694;29;20108;-67
2024/01/12 03:13:50;;;;;;;10.55;4.00;;;-3.60;99.90;;;;;;4895652;29;20032;-67
2024/01/12 03:16:21;;;;;;;5.93;3.58;;;-3.60;99.90;;;;;;4895240;29;20441;-67
2024/01/12 03:18:48;;;;;;;11.57;4.97;;;-3.60;99.90;;;;;;4887842;29;20037;-67
2024/01/12 03:21:18;;;;;;;5.60;4.03;;;-3.60;99.90;;;;;;4895261;29;20063;-67
2024/01/12 03:23:44;;;;;;;12.93;3.97;;;-3.60;99.90;;;;;;4873079;29;20159;-68
2024/01/12 03:26:10;;;;;;;13.25;4.78;;;-3.60;99.90;;;;;;4903399;29;20157;-67
2024/01/12 03:28:35;;;;;;;8.93;3.53;;;-3.60;99.90;;;;;;4879904;29;20168;-67
2024/01/12 03:31:03;;;;;;;8.27;3.92;;;-3.60;99.90;;;;;;4896545;29;20099;-67
2024/01/12 03:33:29;;;;;;;10.35;4.43;;;-3.70;99.90;;;;;;4895003;29;20070;-67
2024/01/12 03:35:55;;;;;;;13.45;5.47;;;-3.70;99.90;;;;;;4894197;29;20069;-67
2024/01/12 03:38:20;;;;;;;8.52;4.75;;;-3.80;99.90;;;;;;4879842;29;20035;-67
2024/01/12 03:40:48;;;;;;;9.32;6.32;;;-3.80;99.90;;;;;;4895857;29;20020;-67
2024/01/12 03:43:13;;;;;;;7.78;6.07;;;-3.80;99.90;;;;;;4895328;29;20120;-67
2024/01/12 03:45:39;;;;;;;6.93;5.40;;;-3.80;99.90;;;;;;4879199;29;20061;-67
2024/01/12 03:48:06;;;;;;;13.07;5.53;;;-3.90;99.90;;;;;;4895282;29;20067;-67
2024/01/12 03:50:35;;;;;;;5.47;3.47;;;-3.80;99.90;;;;;;4896507;29;20028;-67
2024/01/12 03:53:00;;;;;;;13.85;6.38;;;-3.90;99.90;;;;;;4875840;29;20513;-67
2024/01/12 03:55:26;;;;;;;8.68;4.88;;;-3.90;99.90;;;;;;4893601;29;20122;-65
2024/01/12 03:57:52;;;;;;;14.02;5.13;;;-3.80;99.90;;;;;;4896288;29;20111;-65
2024/01/12 04:00:18;;;;;;;10.57;3.85;;;-3.80;99.90;;;;;;4895430;29;20092;-66
2024/01/12 04:02:45;;;;;;;12.00;4.45;;;-3.80;99.90;;;;;;4889626;29;20037;-65
2024/01/12 04:05:11;;;;;;;10.30;4.82;;;-3.80;99.90;;;;;;4895326;29;20051;-66
2024/01/12 04:07:36;;;;;;;7.60;4.20;;;-3.80;99.90;;;;;;4909939;29;20037;-66
2024/01/12 04:10:02;;;;;;;9.57;5.05;;;-3.80;99.90;;;;;;4895320;29;20080;-66
2024/01/12 04:12:28;;;;;;;8.98;6.65;;;-3.90;99.90;;;;;;4889502;29;20041;-66
2024/01/12 04:14:54;;;;;;;11.10;6.13;;;-3.90;99.90;;;;;;4893410;29;20049;-65
2024/01/12 04:17:20;;;;;;;5.88;3.47;;;-3.90;99.90;;;;;;4910129;29;20073;-66
2024/01/12 04:19:45;;;;;;;5.57;4.45;;;-3.90;99.90;;;;;;4895117;29;20055;-66
2024/01/12 04:22:11;;;;;;;6.75;3.40;;;-3.90;99.90;;;;;;4894196;29;20037;-65
2024/01/12 04:24:37;;;;;;;10.27;5.53;;;-3.90;99.90;;;;;;4894826;29;20038;-66
2024/01/12 04:27:03;;;;;;;6.00;2.70;;;-3.90;99.90;;;;;;4895868;29;20175;-65
2024/01/12 04:29:29;;;;;;;7.65;4.35;;;-3.80;99.90;;;;;;4896378;29;20044;-66
2024/01/12 04:31:54;;;;;;;4.28;3.63;;;-3.80;99.90;;;;;;4894235;29;20032;-65
2024/01/12 04:34:20;;;;;;;7.40;4.68;;;-3.80;99.90;;;;;;4894781;29;20032;-66
2024/01/12 04:36:47;;;;;;;6.32;4.13;;;-3.70;99.90;;;;;;4889202;29;20052;-66
2024/01/12 04:39:13;;;;;;;12.18;4.18;;;-3.70;99.90;;;;;;4876082;29;20056;-67
2024/01/12 04:41:38;;;;;;;10.55;4.38;;;-3.70;99.90;;;;;;4904568;29;20035;-65
2024/01/12 04:44:04;;;;;;;15.18;6.80;;;-3.70;99.90;;;;;;4895136;29;20545;-68
2024/01/12 04:46:30;;;;;;;13.18;4.32;;;-3.70;99.90;;;;;;4895661;29;20036;-65
2024/01/12 04:48:56;;;;;;;10.90;4.45;;;-3.70;99.90;;;;;;4898576;29;20138;-66
2024/01/12 04:51:22;;;;;;;17.70;5.70;;;-3.70;99.90;;;;;;4897965;29;20040;-65
2024/01/12 04:53:47;;;;;;;7.80;4.70;;;-3.70;99.90;;;;;;4898350;29;20043;-65
2024/01/12 04:56:14;;;;;;;8.50;4.90;;;-3.70;99.90;;;;;;4899059;29;20033;-67
2024/01/12 04:58:40;;;;;;;9.00;3.85;;;-3.70;99.90;;;;;;4897678;29;20520;-65
2024/01/12 05:01:06;;;;;;;11.23;4.22;;;-3.70;99.90;;;;;;4898726;29;20024;-65
2024/01/12 05:03:31;;;;;;;6.28;3.03;;;-3.70;99.90;;;;;;4897275;29;20031;-66
2024/01/12 05:05:57;;;;;;;9.27;6.35;;;-3.80;99.90;;;;;;4898853;29;20036;-65
2024/01/12 05:08:23;;;;;;;10.27;5.97;;;-3.80;99.90;;;;;;4897644;29;20075;-66
2024/01/12 05:10:49;;;;;;;19.50;5.93;;;-3.80;99.90;;;;;;4898484;29;20128;-65
2024/01/12 05:13:14;;;;;;;10.93;6.43;;;-3.90;99.90;;;;;;4897448;29;20039;-65
2024/01/12 05:15:40;;;;;;;11.90;5.28;;;-3.90;99.90;;;;;;4896467;29;20029;-66
2024/01/12 05:18:06;;;;;;;10.63;5.65;;;-3.90;99.90;;;;;;4898780;29;20021;-66
2024/01/12 05:20:35;;;;;;;13.00;4.07;;;-4.00;99.90;;;;;;4898384;29;20028;-66
2024/01/12 05:23:03;;;;;;;6.60;5.50;;;-4.00;99.90;;;;;;4893980;29;20099;-66
2024/01/12 05:25:29;;;;;;;7.10;3.58;;;-4.00;99.90;;;;;;4895554;29;20024;-66
2024/01/12 05:27:55;;;;;;;12.55;5.25;;;-4.00;99.90;;;;;;4897065;29;20042;-66
2024/01/12 05:30:21;;;;;;;10.65;4.60;;;-4.00;99.90;;;;;;4896057;29;20031;-67
2024/01/12 05:32:46;;;;;;;8.15;4.80;;;-4.00;99.90;;;;;;4897706;29;20028;-67
2024/01/12 05:35:12;;;;;;;7.97;4.82;;;-4.00;99.90;;;;;;4897876;29;20040;-67
2024/01/12 05:37:38;;;;;;;7.53;4.03;;;-3.90;99.90;;;;;;4895460;29;20048;-67
2024/01/12 05:40:04;;;;;;;13.05;6.38;;;-3.90;99.90;;;;;;4889433;29;20107;-67
2024/01/12 05:42:30;;;;;;;13.00;6.30;;;-3.50;99.90;;;;;;4889233;29;20033;-67
2024/01/12 05:44:56;;;;;;;14.73;6.28;;;-2.90;99.90;;;;;;4888860;29;20032;-67
2024/01/12 05:47:22;;;;;;;11.50;4.07;;;-3.00;99.90;;;;;;4889570;29;20045;-66
2024/01/12 05:49:47;;;;;;;4.45;4.05;;;-3.10;99.90;;;;;;4894696;29;20037;-67
2024/01/12 05:52:13;;;;;;;11.18;5.28;;;-3.30;99.90;;;;;;4897606;29;20044;-67
2024/01/12 05:54:39;;;;;;;10.63;5.20;;;-3.50;99.90;;;;;;4876092;29;20071;-67
2024/01/12 05:57:05;;;;;;;32.33;15.27;;;-3.50;99.90;;;;;;4893706;29;20040;-67
2024/01/12 05:59:32;;;;;;;16.92;9.38;;;-3.50;99.90;;;;;;4890953;29;20406;-67
2024/01/12 06:01:58;;;;;;;10.07;7.03;;;-3.40;99.90;;;;;;4890628;29;20031;-65
2024/01/12 06:04:24;;;;;;;14.77;7.70;;;-3.40;99.90;;;;;;4896850;29;20052;-66
2024/01/12 06:06:50;;;;;;;12.27;5.03;;;-3.40;99.90;;;;;;4892249;29;20029;-67
2024/01/12 06:09:15;;;;;;;17.85;6.95;;;-3.40;99.90;;;;;;4893866;29;20052;-67
2024/01/12 06:11:42;;;;;;;35.22;18.55;;;-3.40;99.90;;;;;;4912717;29;20106;-67
2024/01/12 06:14:09;;;;;;;27.60;11.23;;;-3.20;99.90;;;;;;4896328;29;20028;-65
2024/01/12 06:16:34;;;;;;;11.93;7.35;;;-2.80;99.90;;;;;;4895675;29;20060;-66
2024/01/12 06:19:00;;;;;;;16.60;5.45;;;-2.90;99.90;;;;;;4895589;29;20119;-65
2024/01/12 06:21:26;;;;;;;9.73;5.30;;;-3.00;99.90;;;;;;4897565;29;20084;-66
2024/01/12 06:23:52;;;;;;;19.67;6.70;;;-3.10;99.90;;;;;;4896874;29;20557;-66
2024/01/12 06:26:18;;;;;;;8.63;5.07;;;-3.00;99.90;;;;;;4897286;29;20031;-66
2024/01/12 06:28:43;;;;;;;7.18;5.40;;;-3.10;99.90;;;;;;4895713;29;20076;-66
2024/01/12 06:31:09;;;;;;;9.93;5.45;;;-3.10;99.90;;;;;;4896185;29;20600;-66
2024/01/12 06:33:35;;;;;;;9.27;4.13;;;-3.00;99.90;;;;;;4894641;29;20065;-66
2024/01/12 06:36:04;;;;;;;14.07;5.63;;;-3.00;99.90;;;;;;4911398;29;20037;-66
2024/01/12 06:38:31;;;;;;;9.68;5.43;;;-3.00;99.90;;;;;;4896669;29;20044;-66
2024/01/12 06:40:57;;;;;;;9.02;5.03;;;-3.00;99.90;;;;;;4897183;29;20031;-66
2024/01/12 06:43:23;;;;;;;6.63;4.53;;;-3.00;99.90;;;;;;4875769;29;20132;-66
2024/01/12 06:45:48;;;;;;;10.88;4.75;;;-3.00;99.90;;;;;;4897041;29;20084;-66
2024/01/12 06:48:14;;;;;;;10.10;5.85;;;-2.90;99.90;;;;;;4888999;29;20040;-66
2024/01/12 06:50:40;;;;;;;9.65;5.25;;;-2.90;99.90;;;;;;4895280;29;20104;-66
2024/01/12 06:53:08;;;;;;;8.82;3.78;;;-2.80;99.90;;;;;;4895781;29;20036;-66
2024/01/12 06:55:37;;;;;;;12.30;5.75;;;-2.70;99.90;;;;;;4903632;29;20048;-66
2024/01/12 06:58:04;;;;;;;11.07;3.83;;;-2.60;99.90;;;;;;4899660;29;20099;-66
2024/01/12 07:00:30;;;;;;;11.45;3.45;;;-2.50;99.90;;;;;;4899020;29;20115;-66
2024/01/12 07:02:55;;;;;;;15.07;4.32;;;-2.50;99.90;;;;;;4897981;29;20120;-66
2024/01/12 07:05:21;;;;;;;11.93;5.55;;;-2.50;99.90;;;;;;4899461;29;20609;-65
2024/01/12 07:07:47;;;;;;;6.80;3.53;;;-2.50;99.90;;;;;;4898148;29;20048;-65
2024/01/12 07:10:13;;;;;;;9.48;5.07;;;-2.50;99.90;;;;;;4897423;29;20071;-66
2024/01/12 07:12:39;;;;;;;9.38;4.72;;;-2.50;99.90;;;;;;4885059;29;20072;-66
2024/01/12 07:15:06;;;;;;;8.50;5.43;;;-2.50;99.90;;;;;;4890884;29;20041;-66
2024/01/12 07:17:32;;;;;;;7.93;4.30;;;-2.40;99.90;;;;;;4901408;29;20496;-65
2024/01/12 07:19:58;;;;;;;10.75;5.28;;;-2.30;99.90;;;;;;4897319;29;20043;-66
2024/01/12 07:22:23;;;;;;;7.82;4.63;;;-2.30;99.90;;;;;;4893639;29;20032;-66
2024/01/12 07:24:49;;;;;;;7.47;4.22;;;-2.30;99.90;;;;;;4901121;29;20540;-65
2024/01/12 07:27:15;;;;;;;6.32;4.22;;;-2.20;99.90;;;;;;4901523;29;20157;-66
2024/01/12 07:29:41;;;;;;;8.32;5.45;;;-2.20;99.90;;;;;;4891932;29;20063;-66
2024/01/12 07:32:06;;;;;;;9.02;6.40;;;-2.30;99.90;;;;;;4884390;29;20116;-66
2024/01/12 07:34:32;;;;;;;8.93;3.90;;;-2.30;99.90;;;;;;4892909;29;20135;-66
2024/01/12 07:36:58;;;;;;;10.75;4.22;;;-2.30;99.90;;;;;;4893670;29;20040;-66
2024/01/12 07:39:24;;;;;;;6.55;4.43;;;-2.10;99.90;;;;;;4896972;29;20106;-66
2024/01/12 07:41:52;;;;;;;7.22;3.72;;;-2.30;99.90;;;;;;4884708;29;20058;-65
2024/01/12 07:44:18;;;;;;;11.70;5.57;;;-2.20;99.90;;;;;;4900183;29;20028;-66
2024/01/12 07:46:43;;;;;;;11.48;4.63;;;-2.20;99.90;;;;;;4891169;29;20377;-66
2024/01/12 07:49:09;;;;;;;7.05;4.95;;;-2.20;99.90;;;;;;4891193;29;20153;-54
2024/01/12 07:51:35;;;;;;;8.48;4.20;;;-2.20;99.90;;;;;;4883962;29;20048;-50
2024/01/12 07:54:01;;;;;;;13.20;5.90;;;-2.10;99.90;;;;;;4888817;29;20037;-66
2024/01/12 07:56:26;;;;;;;9.23;5.65;;;-1.90;99.90;;;;;;4900893;29;20040;-66
2024/01/12 07:58:52;;;;;;;8.98;4.35;;;-1.90;99.90;;;;;;4880195;29;20060;-66
2024/01/12 08:01:18;;;;;;;9.73;4.97;;;-1.90;99.90;;;;;;4885322;29;20064;-65
2024/01/12 08:03:44;;;;;;;10.68;4.53;;;-1.90;99.90;;;;;;4880665;29;20035;-65
2024/01/12 08:06:11;;;;;;;9.43;4.65;;;-1.90;99.90;;;;;;4902172;29;20036;-65
2024/01/12 08:08:37;;;;;;;4.78;3.13;;;-1.80;99.90;;;;;;4890406;29;20436;-66
2024/01/12 08:11:03;;;;;;;6.18;3.60;;;-1.60;99.90;;;;;;4877610;29;20029;-65
2024/01/12 08:13:29;;;;;;;5.32;3.85;;;-1.60;99.90;;;;;;4891902;29;20069;-65
2024/01/12 08:15:55;;;;;;;9.27;3.40;;;-1.60;99.90;;;;;;4894442;29;20426;-65
2024/01/12 08:18:22;;;;;;;12.57;4.78;;;-1.70;99.90;;;;;;4896267;29;20039;-65
2024/01/12 08:20:48;;;;;;;9.82;5.78;;;-1.70;99.90;;;;;;4877697;29;20062;-65
2024/01/12 08:23:15;;;;;;;8.88;4.22;;;-1.60;99.90;;;;;;4890454;29;20037;-65
2024/01/12 08:25:41;;;;;;;9.18;4.25;;;-1.60;99.90;;;;;;4892752;29;20544;-65
2024/01/12 08:28:07;;;;;;;9.05;4.35;;;-1.60;99.90;;;;;;4887815;29;20033;-65
2024/01/12 08:30:35;;;;;;;13.35;6.03;;;-1.60;99.90;;;;;;4917840;29;20095;-65
2024/01/12 08:33:01;;;;;;;7.47;3.28;;;-1.50;99.90;;;;;;4891526;29;20033;-65
2024/01/12 08:35:27;;;;;;;6.97;4.32;;;-1.50;99.90;;;;;;4894381;29;20115;-66
2024/01/12 08:37:53;;;;;;;8.93;4.60;;;-1.50;99.90;;;;;;4899500;29;20140;-65
2024/01/12 08:40:19;;;;;;;7.78;4.93;;;-1.40;99.90;;;;;;4895028;29;20032;-66
2024/01/12 08:42:44;;;;;;;6.18;3.58;;;-1.50;99.90;;;;;;4898213;29;20136;-66
2024/01/12 08:45:10;;;;;;;5.68;4.40;;;-1.40;99.90;;;;;;4901205;29;20091;-65
2024/01/12 08:47:36;;;;;;;6.22;3.63;;;-1.40;99.90;;;;;;4904561;29;20036;-65
2024/01/12 08:50:01;;;;;;;8.43;4.50;;;-1.50;99.90;;;;;;4892734;29;20044;-66
2024/01/12 08:52:28;;;;;;;10.20;3.97;;;-1.40;99.90;;;;;;4894527;29;20071;-65
2024/01/12 08:54:54;;;;;;;9.93;4.60;;;-1.40;99.90;;;;;;4897295;29;20036;-65
2024/01/12 08:57:20;;;;;;;11.90;5.15;;;-1.30;99.90;;;;;;4902658;29;20044;-66
2024/01/12 08:59:46;;;;;;;10.50;5.65;;;-1.30;99.90;;;;;;4912785;29;20040;-65
2024/01/12 09:02:12;;;;;;;11.68;5.20;;;-1.40;99.90;;;;;;4907133;29;20043;-66
2024/01/12 09:04:37;;;;;;;14.07;6.78;;;-1.50;99.90;;;;;;4897346;29;20048;-66
2024/01/12 09:07:03;;;;;;;13.07;6.72;;;-1.70;99.90;;;;;;4909632;29;20043;-66
2024/01/12 09:09:29;;;;;;;15.05;6.78;;;-1.70;99.90;;;;;;4887748;29;20037;-65
2024/01/12 09:11:55;;;;;;;12.90;6.18;;;-1.80;99.90;;;;;;4904229;29;20507;-65
2024/01/12 09:14:21;;;;;;;11.15;5.65;;;-1.70;99.90;;;;;;4887131;29;20033;-66
2024/01/12 09:16:46;;;;;;;11.30;5.90;;;-1.80;99.90;;;;;;4896121;29;20044;-65
2024/01/12 09:19:12;;;;;;;21.83;6.93;;;-1.70;99.90;;;;;;4894099;29;20036;-65
2024/01/12 09:21:38;;;;;;;14.00;5.70;;;-1.70;99.90;;;;;;4909435;29;20436;-66
2024/01/12 09:24:05;;;;;;;5.53;4.68;;;-1.60;99.90;;;;;;4897219;29;20029;-66
2024/01/12 09:26:31;;;;;;;10.43;6.10;;;-1.50;99.90;;;;;;4898176;29;20473;-66
2024/01/12 09:28:57;;;;;;;13.50;6.75;;;-1.50;99.90;;;;;;4902329;29;20497;-65
2024/01/12 09:31:23;;;;;;;20.00;5.32;;;-1.30;99.90;;;;;;4898871;29;20039;-65
2024/01/12 09:33:51;;;;;;;9.52;5.75;;;-1.30;99.90;;;;;;4892664;29;20044;-65
2024/01/12 09:36:17;;;;;;;16.00;6.55;;;-1.20;99.90;;;;;;4902724;29;20043;-65
2024/01/12 09:38:42;;;;;;;18.25;5.97;;;-1.10;99.90;;;;;;4901453;29;20029;-66
2024/01/12 09:41:12;;;;;;;7.93;4.65;;;-1.20;99.90;;;;;;4896616;29;20088;-65
2024/01/12 09:43:40;;;;;;;14.23;4.07;;;-1.20;99.90;;;;;;4883178;29;20120;-65
2024/01/12 09:46:09;;;;;;;13.20;6.05;;;-1.10;99.90;;;;;;4902578;29;20056;-66
2024/01/12 09:48:34;;;;;;;9.68;4.75;;;-1.10;99.90;;;;;;4900583;29;20044;-66
2024/01/12 09:51:03;;;;;;;10.73;4.90;;;-1.00;99.90;;;;;;4904437;29;20032;-66
2024/01/12 09:53:29;;;;;;;7.47;3.50;;;-1.10;99.90;;;;;;4890001;29;20124;-65
2024/01/12 09:55:54;;;;;;;11.35;4.65;;;-1.00;99.90;;;;;;4900122;29;20107;-66
2024/01/12 09:58:22;;;;;;;12.45;4.35;;;-0.90;99.90;;;;;;4898301;29;20036;-65
2024/01/12 10:00:50;;;;;;;9.75;5.15;;;-1.00;99.90;;;;;;4890208;29;20028;-66
2024/01/12 10:03:18;;;;;;;5.15;3.92;;;-1.00;99.90;;;;;;4885664;29;20070;-66
2024/01/12 10:05:44;;;;;;;7.70;5.35;;;-0.90;99.90;;;;;;4891135;29;20028;-65
2024/01/12 10:08:10;;;;;;;8.48;3.70;;;-0.90;99.90;;;;;;4880816;29;20045;-66
2024/01/12 10:10:38;;;;;;;9.15;5.47;;;-0.80;99.90;;;;;;4903626;29;20036;-66
2024/01/12 10:13:04;;;;;;;11.52;4.90;;;-0.70;99.90;;;;;;4903751;29;20046;-65
2024/01/12 10:15:30;;;;;;;13.35;4.53;;;-0.80;99.90;;;;;;4892368;29;20115;-66
2024/01/12 10:17:56;;;;;;;7.68;3.45;;;-0.80;99.90;;;;;;4901495;29;20514;-66
2024/01/12 10:20:22;;;;;;;10.90;4.53;;;-0.80;99.90;;;;;;4896469;29;20041;-65
2024/01/12 10:22:58;;;;;;;7.68;4.22;;;-0.80;99.90;;;;;;4900996;29;20028;-65
2024/01/12 10:25:24;;;;;;;13.40;5.80;;;-0.70;99.90;;;;;;4899943;29;20063;-66
2024/01/12 10:27:57;;;;;;;15.88;9.10;;;-0.90;99.90;;;;;;4907878;29;20067;-66
2024/01/12 10:30:23;;;;;;;11.63;7.97;;;-1.00;99.90;;;;;;4898797;29;20036;-66
2024/01/12 10:32:53;;;;;;;12.57;7.00;;;-1.00;99.90;;;;;;4900630;29;20475;-67
2024/01/12 10:35:22;;;;;;;10.20;6.50;;;-1.10;99.90;;;;;;4901237;29;20036;-66
2024/01/12 10:37:49;;;;;;;13.52;7.07;;;-0.90;99.90;;;;;;4890717;29;20769;-66
2024/01/12 10:40:16;;;;;;;15.48;5.25;;;-0.90;99.90;;;;;;4900699;29;20158;-66
2024/01/12 10:42:48;;;;;;;29.10;9.30;;;-0.90;99.90;;;;;;4903374;29;20028;-66
2024/01/12 10:45:23;;;;;;;17.08;8.65;;;-1.10;99.90;;;;;;4899883;29;20040;-66
2024/01/12 10:48:05;;;;;;;25.10;7.93;;;-1.10;99.90;;;;;;4899637;29;20037;-66
2024/01/12 10:50:42;;;;;;;12.40;5.40;;;-1.10;99.90;;;;;;4888196;29;20033;-66
2024/01/12 10:53:37;;;;;;;13.13;8.02;;;-1.30;99.90;;;;;;4894492;29;20037;-66
2024/01/12 10:56:03;;;;;;;15.10;8.55;;;-1.10;99.90;;;;;;4900163;29;20028;-66
2024/01/12 10:58:29;;;;;;;16.98;8.38;;;-0.90;99.90;;;;;;4897629;29;20039;-66
2024/01/12 11:00:56;;;;;;;16.90;8.25;;;-1.10;99.90;;;;;;4907271;29;20044;-66
2024/01/12 11:03:23;;;;;;;23.38;7.93;;;-1.00;99.90;;;;;;4898208;29;20039;-66
2024/01/12 11:05:49;;;;;;;12.45;5.97;;;-0.90;99.90;;;;;;4895000;29;20029;-66
2024/01/12 11:08:15;;;;;;;14.68;8.20;;;-0.90;99.90;;;;;;4898359;29;20044;-66
2024/01/12 11:10:51;;;;;;;12.10;7.55;;;-0.90;99.90;;;;;;4900714;29;20115;-66
2024/01/12 11:13:18;;;;;;;12.75;7.28;;;-0.80;99.90;;;;;;4900029;29;20147;-66
2024/01/12 11:15:45;;;;;;;10.98;6.28;;;-0.60;99.90;;;;;;4902845;29;20036;-66
2024/01/12 11:18:11;;;;;;;21.23;8.77;;;-0.80;99.90;;;;;;4875842;29;20103;-66
2024/01/12 11:20:38;;;;;;;12.38;6.75;;;-0.90;99.90;;;;;;4885316;29;20041;-66
2024/01/12 11:23:04;;;;;;;13.57;7.60;;;-1.00;99.90;;;;;;4886021;29;20079;-66
2024/01/12 11:25:30;;;;;;;8.80;5.03;;;-0.90;99.90;;;;;;4879974;29;20476;-66
2024/01/12 11:27:56;;;;;;;12.20;6.65;;;-0.90;99.90;;;;;;4885950;29;20029;-66
2024/01/12 11:30:24;;;;;;;12.55;6.97;;;-0.70;99.90;;;;;;4880554;29;20036;-66
2024/01/12 11:33:06;;;;;;;24.70;7.28;;;-0.70;99.90;;;;;;4886976;29;20035;-66
2024/01/12 11:35:32;;;;;;;15.23;5.53;;;-0.70;99.90;;;;;;4877674;29;20374;-65
2024/01/12 11:38:06;;;;;;;11.85;6.18;;;-0.80;99.90;;;;;;4891458;29;20128;-65
2024/01/12 11:40:32;;;;;;;16.92;7.38;;;-0.80;99.90;;;;;;4887823;29;20135;-66
2024/01/12 11:43:00;;;;;;;15.65;8.90;;;-0.70;99.90;;;;;;4876946;29;20107;-66
2024/01/12 11:45:27;;;;;;;14.20;7.13;;;-0.60;99.90;;;;;;4894773;29;20062;-66
2024/01/12 11:47:56;;;;;;;16.45;9.02;;;-0.60;99.90;;;;;;4892060;29;20530;-66
2024/01/12 11:50:24;;;;;;;17.83;7.63;;;-0.70;99.90;;;;;;4885207;29;20147;-66
2024/01/12 11:53:01;;;;;;;12.57;4.72;;;-0.60;99.90;;;;;;4892992;29;20040;-66
2024/01/12 11:55:27;;;;;;;13.63;5.13;;;-0.70;99.90;;;;;;4891631;29;20024;-66
2024/01/12 11:57:54;;;;;;;12.45;5.70;;;-0.90;99.90;;;;;;4883856;29;20037;-66
2024/01/12 12:00:23;;;;;;;10.18;5.03;;;-0.90;99.90;;;;;;4910477;29;20087;-66
2024/01/12 12:02:49;;;;;;;9.70;4.65;;;-0.90;99.90;;;;;;4894674;29;20025;-66
2024/01/12 12:05:15;;;;;;;10.30;5.70;;;-0.90;99.90;;;;;;4881394;29;20386;-65
2024/01/12 12:07:41;;;;;;;10.98;5.25;;;-0.80;99.90;;;;;;4891327;29;20029;-65
2024/01/12 12:10:09;;;;;;;14.88;7.13;;;-0.70;99.90;;;;;;4880975;29;20033;-66
2024/01/12 12:12:36;;;;;;;14.80;6.90;;;-0.80;99.90;;;;;;4874956;29;20044;-66
2024/01/12 12:15:12;;;;;;;14.13;6.05;;;-0.50;99.90;;;;;;4889209;29;20465;-66
2024/01/12 12:17:46;;;;;;;12.15;5.32;;;-0.50;99.90;;;;;;4904959;29;20513;-66
2024/01/12 12:20:12;;;;;;;12.88;6.47;;;-0.60;99.90;;;;;;4893655;29;20049;-66
2024/01/12 12:22:45;;;;;;;14.80;8.60;;;-0.60;99.90;;;;;;4893900;29;20028;-67
2024/01/12 12:25:13;;;;;;;17.13;7.03;;;-0.60;99.90;;;;;;4893604;29;20050;-66
2024/01/12 12:27:40;;;;;;;17.95;8.15;;;-0.70;99.90;;;;;;4878021;29;20104;-66
2024/01/12 12:30:08;;;;;;;14.13;8.18;;;-0.60;99.90;;;;;;4881037;29;20056;-66
2024/01/12 12:32:34;;;;;;;21.33;6.57;;;-0.70;99.90;;;;;;4873830;29;20033;-66
2024/01/12 12:35:13;;;;;;;21.33;6.78;;;-0.50;99.90;;;;;;4894183;29;20396;-66
2024/01/12 12:37:41;;;;;;;19.10;6.45;;;-0.60;99.90;;;;;;4900157;29;20032;-66